createdAt,value
2023-04-21T00:00:25.579Z,100.00
2023-04-21T00:02:52.166Z,100.00
2023-04-21T00:05:18.906Z,100.00
2023-04-21T00:07:45.525Z,100.00
2023-04-21T00:10:12.215Z,100.00
2023-04-21T00:12:38.853Z,100.00
2023-04-21T00:15:06.070Z,100.00
2023-04-21T00:17:32.587Z,100.00
2023-04-21T00:19:59.010Z,100.00
2023-04-21T00:22:25.466Z,100.00
2023-04-21T00:24:51.998Z,100.00
2023-04-21T00:27:18.462Z,100.00
2023-04-21T00:29:44.978Z,100.00
2023-04-21T00:32:11.480Z,100.00
2023-04-21T00:34:37.885Z,100.00
2023-04-21T00:37:04.467Z,100.00
2023-04-21T00:39:30.938Z,100.00
2023-04-21T00:41:57.398Z,100.00
2023-04-21T00:44:23.908Z,100.00
2023-04-21T00:46:50.419Z,100.00
2023-04-21T00:49:17.160Z,100.00
2023-04-21T00:51:43.868Z,100.00
2023-04-21T00:54:13.873Z,100.00
2023-04-21T00:56:40.491Z,100.00
2023-04-21T00:59:06.952Z,100.00
2023-04-21T01:01:36.532Z,100.00
2023-04-21T01:04:05.189Z,100.00
2023-04-21T01:06:33.141Z,100.00
2023-04-21T01:09:00.512Z,100.00
2023-04-21T01:11:27.031Z,100.00
2023-04-21T01:13:54.578Z,100.00
2023-04-21T01:16:23.110Z,100.00
2023-04-21T01:18:50.493Z,100.00
2023-04-21T01:21:17.511Z,100.00
2023-04-21T01:23:44.022Z,100.00
2023-04-21T01:26:10.487Z,100.00
2023-04-21T01:28:36.961Z,100.00
2023-04-21T01:31:04.406Z,100.00
2023-04-21T01:33:31.046Z,100.00
2023-04-21T01:35:57.646Z,100.00
2023-04-21T01:38:24.146Z,100.00
2023-04-21T01:40:52.998Z,100.00
2023-04-21T01:43:22.578Z,100.00
2023-04-21T01:45:49.201Z,100.00
2023-04-21T01:48:15.758Z,100.00
2023-04-21T01:50:42.251Z,100.00
2023-04-21T01:53:08.972Z,100.00
2023-04-21T01:55:35.637Z,100.00
2023-04-21T01:58:02.060Z,100.00
2023-04-21T02:00:28.645Z,100.00
2023-04-21T02:02:55.210Z,100.00
2023-04-21T02:05:21.785Z,100.00
2023-04-21T02:07:48.182Z,100.00
2023-04-21T02:10:14.623Z,100.00
2023-04-21T02:12:41.142Z,100.00
2023-04-21T02:15:08.191Z,100.00
2023-04-21T02:17:34.842Z,100.00
2023-04-21T02:20:03.885Z,100.00
2023-04-21T02:22:30.769Z,100.00
2023-04-21T02:24:57.270Z,100.00
2023-04-21T02:27:23.767Z,100.00
2023-04-21T02:29:50.238Z,100.00
2023-04-21T02:32:25.653Z,100.00
2023-04-21T02:34:52.963Z,100.00
2023-04-21T02:37:20.050Z,100.00
2023-04-21T02:39:46.533Z,100.00
2023-04-21T02:42:12.953Z,100.00
2023-04-21T02:44:39.446Z,100.00
2023-04-21T02:47:05.898Z,100.00
2023-04-21T02:49:32.368Z,100.00
2023-04-21T02:51:58.836Z,100.00
2023-04-21T02:54:25.316Z,100.00
2023-04-21T02:56:51.768Z,100.00
2023-04-21T02:59:18.576Z,100.00
2023-04-21T03:01:46.294Z,100.00
2023-04-21T03:04:13.050Z,100.00
2023-04-21T03:06:39.819Z,100.00
2023-04-21T03:09:06.292Z,100.00
2023-04-21T03:11:32.676Z,100.00
2023-04-21T03:13:59.149Z,100.00
2023-04-21T03:16:25.595Z,100.00
2023-04-21T03:18:52.116Z,100.00
2023-04-21T03:21:18.915Z,100.00
2023-04-21T03:23:45.538Z,100.00
2023-04-21T03:26:12.038Z,100.00
2023-04-21T03:28:38.541Z,100.00
2023-04-21T03:31:05.097Z,100.00
2023-04-21T03:33:31.547Z,100.00
2023-04-21T03:35:58.025Z,100.00
2023-04-21T03:38:24.546Z,100.00
2023-04-21T03:40:50.970Z,100.00
2023-04-21T03:43:17.435Z,100.00
2023-04-21T03:45:43.979Z,100.00
2023-04-21T03:48:10.692Z,100.00
2023-04-21T03:50:38.429Z,100.00
2023-04-21T03:53:04.868Z,100.00
2023-04-21T03:55:31.388Z,100.00
2023-04-21T03:57:57.835Z,100.00
2023-04-21T04:00:24.425Z,100.00
2023-04-21T04:02:51.102Z,100.00
2023-04-21T04:05:17.729Z,100.00
2023-04-21T04:07:45.352Z,100.00
2023-04-21T04:10:12.039Z,100.00
2023-04-21T04:12:38.503Z,100.00
2023-04-21T04:15:05.436Z,100.00
2023-04-21T04:17:31.951Z,100.00
2023-04-21T04:19:58.378Z,100.00
2023-04-21T04:22:24.870Z,100.00
2023-04-21T04:24:51.307Z,100.00
2023-04-21T04:27:17.990Z,100.00
2023-04-21T04:29:46.447Z,100.00
2023-04-21T04:32:13.608Z,100.00
2023-04-21T04:34:40.009Z,100.00
2023-04-21T04:37:06.557Z,100.00
2023-04-21T04:39:33.107Z,100.00
2023-04-21T04:41:59.731Z,100.00
2023-04-21T04:44:26.162Z,100.00
2023-04-21T04:46:52.934Z,100.00
2023-04-21T04:49:19.732Z,100.00
2023-04-21T04:51:46.630Z,100.00
2023-04-21T04:54:13.246Z,100.00
2023-04-21T04:56:40.458Z,100.00
2023-04-21T04:59:06.908Z,100.00
2023-04-21T05:01:33.472Z,100.00
2023-04-21T05:04:00.299Z,100.00
2023-04-21T05:06:26.857Z,100.00
2023-04-21T05:08:53.295Z,100.00
2023-04-21T05:11:20.291Z,100.00
2023-04-21T05:13:46.872Z,100.00
2023-04-21T05:16:13.381Z,100.00
2023-04-21T05:18:39.922Z,100.00
2023-04-21T05:21:06.386Z,100.00
2023-04-21T05:23:32.845Z,100.00
2023-04-21T05:26:01.998Z,100.00
2023-04-21T05:28:31.778Z,100.00
2023-04-21T05:30:58.327Z,100.00
2023-04-21T05:33:26.663Z,100.00
2023-04-21T05:35:53.252Z,100.00
2023-04-21T05:38:19.710Z,100.00
2023-04-21T05:40:53.319Z,100.00
2023-04-21T05:43:19.848Z,100.00
2023-04-21T05:45:46.328Z,100.00
2023-04-21T05:48:13.753Z,100.00
2023-04-21T05:50:40.338Z,100.00
2023-04-21T05:53:06.828Z,100.00
2023-04-21T05:55:36.938Z,100.00
2023-04-21T05:58:04.242Z,100.00
2023-04-21T06:00:30.899Z,100.00
2023-04-21T06:02:57.587Z,100.00
2023-04-21T06:05:24.225Z,100.00
2023-04-21T06:07:50.777Z,100.00
2023-04-21T06:10:17.846Z,100.00
2023-04-21T06:12:44.327Z,100.00
2023-04-21T06:15:10.900Z,100.00
2023-04-21T06:17:37.402Z,100.00
2023-04-21T06:20:04.269Z,100.00
2023-04-21T06:22:30.826Z,100.00
2023-04-21T06:24:58.683Z,100.00
2023-04-21T06:27:25.520Z,100.00
2023-04-21T06:29:56.109Z,100.00
2023-04-21T06:32:22.702Z,100.00
2023-04-21T06:34:49.194Z,100.00
2023-04-21T06:37:15.770Z,100.00
2023-04-21T06:39:42.179Z,100.00
2023-04-21T06:42:08.661Z,100.00
2023-04-21T06:44:35.131Z,100.00
2023-04-21T06:47:01.661Z,100.00
2023-04-21T06:49:28.347Z,100.00
2023-04-21T06:51:54.929Z,100.00
2023-04-21T06:54:21.327Z,100.00
2023-04-21T06:56:47.799Z,100.00
2023-04-21T06:59:14.307Z,100.00
2023-04-21T07:01:40.833Z,100.00
2023-04-21T07:04:07.462Z,100.00
2023-04-21T07:06:34.086Z,100.00
2023-04-21T07:09:00.610Z,100.00
2023-04-21T07:11:28.615Z,100.00
2023-04-21T07:13:55.710Z,100.00
2023-04-21T07:16:22.349Z,100.00
2023-04-21T07:18:48.954Z,100.00
2023-04-21T07:21:15.502Z,100.00
2023-04-21T07:23:41.922Z,100.00
2023-04-21T07:26:08.371Z,100.00
2023-04-21T07:28:34.822Z,100.00
2023-04-21T07:31:03.373Z,100.00
2023-04-21T07:33:30.119Z,100.00
2023-04-21T07:35:56.756Z,100.00
2023-04-21T07:38:23.195Z,100.00
2023-04-21T07:40:49.704Z,100.00
2023-04-21T07:43:16.461Z,100.00
2023-04-21T07:45:43.006Z,100.00
2023-04-21T07:48:09.508Z,100.00
2023-04-21T07:50:36.403Z,100.00
2023-04-21T07:53:03.248Z,100.00
2023-04-21T07:55:29.856Z,100.00
2023-04-21T07:57:56.608Z,100.00
2023-04-21T08:00:23.113Z,100.00
2023-04-21T08:02:49.748Z,100.00
2023-04-21T08:05:16.480Z,100.00
2023-04-21T08:07:43.081Z,100.00
2023-04-21T08:10:10.190Z,100.00
2023-04-21T08:12:36.783Z,100.00
2023-04-21T08:15:07.584Z,100.00
2023-04-21T08:17:34.841Z,100.00
2023-04-21T08:20:02.310Z,100.00
2023-04-21T08:22:28.861Z,100.00
2023-04-21T08:24:55.542Z,100.00
2023-04-21T08:27:22.107Z,100.00
2023-04-21T08:29:51.167Z,100.00
2023-04-21T08:32:23.417Z,100.00
2023-04-21T08:34:51.835Z,100.00
2023-04-21T08:37:19.364Z,100.00
2023-04-21T08:39:46.739Z,100.00
2023-04-21T08:42:15.019Z,100.00
2023-04-21T08:44:41.700Z,100.00
2023-04-21T08:47:11.422Z,100.00
2023-04-21T08:49:39.041Z,100.00
2023-04-21T08:52:06.116Z,100.00
2023-04-21T08:54:33.548Z,100.00
2023-04-21T08:57:11.811Z,100.00
2023-04-21T08:59:41.067Z,100.00
2023-04-21T09:02:11.822Z,100.00
2023-04-21T09:04:40.948Z,100.00
2023-04-21T09:07:08.843Z,100.00
2023-04-21T09:09:55.051Z,100.00
2023-04-21T09:12:22.521Z,100.00
2023-04-21T09:14:48.996Z,100.00
2023-04-21T09:17:17.214Z,100.00
2023-04-21T09:19:44.796Z,100.00
2023-04-21T09:22:16.691Z,100.00
2023-04-21T09:24:48.202Z,100.00
2023-04-21T09:27:17.838Z,100.00
2023-04-21T09:29:48.460Z,100.00
2023-04-21T09:32:19.633Z,100.00
2023-04-21T09:34:46.725Z,100.00
2023-04-21T09:37:17.251Z,100.00
2023-04-21T09:40:03.432Z,100.00
2023-04-21T09:42:32.692Z,100.00
2023-04-21T09:45:16.407Z,100.00
2023-04-21T09:47:51.367Z,100.00
2023-04-21T09:50:36.173Z,100.00
2023-04-21T09:53:09.725Z,100.00
2023-04-21T09:55:36.759Z,100.00
2023-04-21T09:58:07.092Z,100.00
2023-04-21T10:00:39.193Z,100.00
2023-04-21T10:03:10.385Z,100.00
2023-04-21T10:05:41.273Z,100.00
2023-04-21T10:08:11.414Z,100.00
2023-04-21T10:10:38.946Z,100.00
2023-04-21T10:13:05.780Z,100.00
2023-04-21T10:15:39.815Z,100.00
2023-04-21T10:18:14.370Z,100.00
2023-04-21T10:21:02.677Z,100.00
2023-04-21T10:23:37.559Z,100.00
2023-04-21T10:26:17.464Z,100.00
2023-04-21T10:28:47.853Z,100.00
2023-04-21T10:31:19.332Z,100.00
2023-04-21T10:34:12.651Z,100.00
2023-04-21T10:36:45.884Z,100.00
2023-04-21T10:39:33.510Z,100.00
2023-04-21T10:42:20.702Z,100.00
2023-04-21T10:44:56.139Z,100.00
2023-04-21T10:47:30.382Z,100.00
2023-04-21T10:49:58.198Z,100.00
2023-04-21T10:52:34.041Z,100.00
2023-04-21T10:55:07.804Z,100.00
2023-04-21T10:57:35.756Z,100.00
2023-04-21T11:00:07.320Z,100.00
2023-04-21T11:02:38.138Z,100.00
2023-04-21T11:05:07.437Z,100.00
2023-04-21T11:07:33.994Z,100.00
2023-04-21T11:10:06.260Z,100.00
2023-04-21T11:12:40.424Z,100.00
2023-04-21T11:15:09.587Z,100.00
2023-04-21T11:17:38.505Z,100.00
2023-04-21T11:20:06.841Z,100.00
2023-04-21T11:22:34.280Z,100.00
2023-04-21T11:25:00.899Z,100.00
2023-04-21T11:27:29.939Z,100.00
2023-04-21T11:29:57.484Z,100.00
2023-04-21T11:32:25.083Z,100.00
2023-04-21T11:34:51.713Z,100.00
2023-04-21T11:37:26.838Z,100.00
2023-04-21T11:39:58.391Z,100.00
2023-04-21T11:42:24.939Z,100.00
2023-04-21T11:44:54.332Z,100.00
2023-04-21T11:47:26.094Z,100.00
2023-04-21T11:49:56.743Z,100.00
2023-04-21T11:52:33.061Z,100.00
2023-04-21T11:55:05.333Z,100.00
2023-04-21T11:57:33.173Z,100.00
2023-04-21T12:00:01.103Z,100.00
2023-04-21T12:02:32.346Z,100.00
2023-04-21T12:05:06.968Z,100.00
2023-04-21T12:07:36.638Z,100.00
2023-04-21T12:10:10.158Z,100.00
2023-04-21T12:12:41.181Z,100.00
2023-04-21T12:15:09.294Z,100.00
2023-04-21T12:17:45.621Z,100.00
2023-04-21T12:20:15.358Z,100.00
2023-04-21T12:22:41.892Z,100.00
2023-04-21T12:25:09.025Z,100.00
2023-04-21T12:27:35.711Z,100.00
2023-04-21T12:30:03.209Z,100.00
2023-04-21T12:32:29.731Z,100.00
2023-04-21T12:34:56.193Z,100.00
2023-04-21T12:37:22.665Z,100.00
2023-04-21T12:39:49.112Z,100.00
2023-04-21T12:42:16.012Z,100.00
2023-04-21T12:44:42.548Z,100.00
2023-04-21T12:47:09.185Z,100.00
2023-04-21T12:49:35.748Z,100.00
2023-04-21T12:52:05.302Z,100.00
2023-04-21T12:54:31.772Z,100.00
2023-04-21T12:56:58.722Z,100.00
2023-04-21T12:59:25.345Z,100.00
2023-04-21T13:01:51.920Z,100.00
2023-04-21T13:04:18.803Z,100.00
2023-04-21T13:06:45.574Z,100.00
2023-04-21T13:09:12.018Z,100.00
2023-04-21T13:11:38.579Z,100.00
2023-04-21T13:14:05.136Z,100.00
2023-04-21T13:16:31.926Z,100.00
2023-04-21T13:18:58.613Z,100.00
2023-04-21T13:21:25.144Z,100.00
2023-04-21T13:23:51.630Z,100.00
2023-04-21T13:26:18.678Z,100.00
2023-04-21T13:28:45.428Z,100.00
2023-04-21T13:31:12.031Z,100.00
2023-04-21T13:33:38.598Z,100.00
2023-04-21T13:36:05.504Z,100.00
2023-04-21T13:38:32.126Z,100.00
2023-04-21T13:40:58.906Z,100.00
2023-04-21T13:43:25.557Z,100.00
2023-04-21T13:45:52.467Z,100.00
2023-04-21T13:48:24.103Z,100.00
2023-04-21T13:50:51.516Z,100.00
2023-04-21T13:53:19.894Z,100.00
2023-04-21T13:55:47.629Z,100.00
2023-04-21T13:58:18.205Z,100.00
2023-04-21T14:00:44.776Z,93.62
2023-04-21T14:03:11.945Z,86.93
2023-04-21T14:05:39.049Z,86.33
2023-04-21T14:08:06.454Z,80.77
2023-04-21T14:10:33.111Z,84.24
2023-04-21T14:12:59.764Z,85.10
2023-04-21T14:15:26.416Z,85.49
2023-04-21T14:17:53.387Z,85.91
2023-04-21T14:20:20.161Z,84.22
2023-04-21T14:22:46.826Z,83.94
2023-04-21T14:25:13.431Z,82.49
2023-04-21T14:27:39.877Z,84.79
2023-04-21T14:30:07.118Z,86.73
2023-04-21T14:32:33.705Z,85.30
2023-04-21T14:35:03.140Z,87.36
2023-04-21T14:37:29.661Z,83.58
2023-04-21T14:39:56.239Z,79.60
2023-04-21T14:42:22.691Z,78.42
2023-04-21T14:44:49.194Z,77.64
2023-04-21T14:47:15.827Z,81.78
2023-04-21T14:49:43.167Z,85.69
2023-04-21T14:52:09.805Z,87.85
2023-04-21T14:54:36.273Z,85.58
2023-04-21T14:57:18.750Z,83.31
2023-04-21T14:59:46.744Z,85.83
2023-04-21T15:02:13.832Z,86.32
2023-04-21T15:04:40.782Z,87.29
2023-04-21T15:07:07.413Z,83.46
2023-04-21T15:09:35.574Z,88.32
2023-04-21T15:12:02.518Z,84.84
2023-04-21T15:14:29.078Z,80.83
2023-04-21T15:16:55.599Z,78.87
2023-04-21T15:19:24.006Z,84.76
2023-04-21T15:21:51.930Z,81.42
2023-04-21T15:24:18.443Z,86.57
2023-04-21T15:26:44.950Z,87.68
2023-04-21T15:29:11.533Z,87.28
2023-04-21T15:31:38.091Z,87.89
2023-04-21T15:34:04.610Z,88.40
2023-04-21T15:36:32.066Z,85.89
2023-04-21T15:38:58.591Z,85.38
2023-04-21T15:41:26.361Z,86.59
2023-04-21T15:43:52.999Z,82.16
2023-04-21T15:46:19.580Z,85.85
2023-04-21T15:48:46.112Z,84.74
2023-04-21T15:51:13.287Z,83.65
2023-04-21T15:53:46.990Z,83.15
2023-04-21T15:56:14.635Z,82.99
2023-04-21T15:58:41.263Z,81.82
2023-04-21T16:01:08.347Z,80.86
2023-04-21T16:03:35.373Z,78.72
2023-04-21T16:06:02.084Z,77.54
2023-04-21T16:08:28.842Z,82.00
2023-04-21T16:10:56.077Z,83.11
2023-04-21T16:13:22.547Z,80.11
2023-04-21T16:15:49.056Z,81.77
2023-04-21T16:18:15.811Z,85.00
2023-04-21T16:20:44.009Z,81.12
2023-04-21T16:23:10.675Z,81.48
2023-04-21T16:25:37.284Z,80.02
2023-04-21T16:28:03.956Z,78.73
2023-04-21T16:30:30.387Z,76.93
2023-04-21T16:32:56.883Z,78.63
2023-04-21T16:35:23.603Z,78.35
2023-04-21T16:37:50.283Z,82.01
2023-04-21T16:40:16.791Z,79.26
2023-04-21T16:42:43.346Z,81.00
2023-04-21T16:45:10.361Z,81.89
2023-04-21T16:47:41.640Z,85.18
2023-04-21T16:50:09.489Z,80.18
2023-04-21T16:52:36.330Z,85.25
2023-04-21T16:55:02.863Z,90.65
2023-04-21T16:57:31.150Z,90.80
2023-04-21T17:00:00.808Z,88.43
2023-04-21T17:02:27.462Z,92.11
2023-04-21T17:04:54.045Z,89.68
2023-04-21T17:07:20.565Z,91.60
2023-04-21T17:09:47.044Z,91.70
2023-04-21T17:12:13.455Z,89.06
2023-04-21T17:14:40.495Z,92.78
2023-04-21T17:17:07.203Z,83.85
2023-04-21T17:19:33.882Z,88.37
2023-04-21T17:22:00.554Z,85.91
2023-04-21T17:24:29.585Z,82.73
2023-04-21T17:26:59.751Z,86.68
2023-04-21T17:29:26.917Z,89.76
2023-04-21T17:31:53.674Z,88.13
2023-04-21T17:34:20.174Z,90.19
2023-04-21T17:36:46.787Z,86.49
2023-04-21T17:39:14.073Z,87.22
2023-04-21T17:41:41.906Z,82.61
2023-04-21T17:44:08.432Z,82.28
2023-04-21T17:46:35.389Z,85.23
2023-04-21T17:49:02.013Z,85.76
2023-04-21T17:51:28.774Z,85.44
2023-04-21T17:53:55.207Z,85.54
2023-04-21T17:56:22.409Z,84.94
2023-04-21T17:58:48.874Z,89.31
2023-04-21T18:01:15.382Z,89.91
2023-04-21T18:03:43.000Z,89.81
2023-04-21T18:06:11.261Z,89.85
2023-04-21T18:08:38.209Z,95.12
2023-04-21T18:11:04.752Z,95.59
2023-04-21T18:13:31.221Z,100.00
2023-04-21T18:15:58.014Z,100.00
2023-04-21T18:18:25.523Z,100.00
2023-04-21T18:20:52.206Z,100.00
2023-04-21T18:23:18.698Z,100.00
2023-04-21T18:25:45.820Z,100.00
2023-04-21T18:28:13.034Z,100.00
2023-04-21T18:30:39.913Z,100.00
2023-04-21T18:33:06.565Z,100.00
2023-04-21T18:35:33.953Z,100.00
2023-04-21T18:38:00.839Z,100.00
2023-04-21T18:40:27.568Z,100.00
2023-04-21T18:42:54.159Z,100.00
2023-04-21T18:45:20.661Z,98.11
2023-04-21T18:47:47.565Z,100.00
2023-04-21T18:50:15.600Z,96.30
2023-04-21T18:52:42.086Z,100.00
2023-04-21T18:55:09.239Z,100.00
2023-04-21T18:57:35.713Z,96.96
2023-04-21T19:00:02.158Z,100.00
2023-04-21T19:02:29.682Z,100.00
2023-04-21T19:04:56.328Z,100.00
2023-04-21T19:07:22.791Z,100.00
2023-04-21T19:09:49.307Z,100.00
2023-04-21T19:12:16.487Z,100.00
2023-04-21T19:14:47.566Z,100.00
2023-04-21T19:17:15.216Z,100.00
2023-04-21T19:19:42.508Z,100.00
2023-04-21T19:22:08.994Z,100.00
2023-04-21T19:24:35.977Z,100.00
2023-04-21T19:27:03.511Z,100.00
2023-04-21T19:29:31.023Z,100.00
2023-04-21T19:31:58.468Z,100.00
2023-04-21T19:34:25.208Z,100.00
2023-04-21T19:36:52.821Z,100.00
2023-04-21T19:39:19.448Z,100.00
2023-04-21T19:41:46.061Z,100.00
2023-04-21T19:44:12.896Z,100.00
2023-04-21T19:46:42.518Z,100.00
2023-04-21T19:49:13.010Z,100.00
2023-04-21T19:51:40.618Z,100.00
2023-04-21T19:54:11.317Z,100.00
2023-04-21T19:56:39.468Z,100.00
2023-04-21T19:59:06.448Z,100.00
2023-04-21T20:01:36.102Z,100.00
2023-04-21T20:04:03.560Z,100.00
2023-04-21T20:06:30.522Z,100.00
2023-04-21T20:08:57.009Z,100.00
2023-04-21T20:11:23.840Z,100.00
2023-04-21T20:13:50.632Z,100.00
2023-04-21T20:16:20.123Z,100.00
2023-04-21T20:18:46.903Z,100.00
2023-04-21T20:21:13.384Z,100.00
2023-04-21T20:23:39.809Z,100.00
2023-04-21T20:26:06.572Z,100.00
2023-04-21T20:28:33.209Z,100.00
2023-04-21T20:30:59.850Z,100.00
2023-04-21T20:33:26.334Z,100.00
2023-04-21T20:35:52.826Z,100.00
2023-04-21T20:38:19.400Z,100.00
2023-04-21T20:40:50.070Z,100.00
2023-04-21T20:43:18.824Z,100.00
2023-04-21T20:45:46.973Z,100.00
2023-04-21T20:48:13.460Z,100.00
2023-04-21T20:50:39.875Z,100.00
2023-04-21T20:53:08.424Z,100.00
2023-04-21T20:55:35.356Z,100.00
2023-04-21T20:58:02.604Z,100.00
2023-04-21T21:00:31.526Z,100.00
2023-04-21T21:02:58.354Z,100.00
2023-04-21T21:05:24.961Z,100.00
2023-04-21T21:07:51.500Z,100.00
2023-04-21T21:10:18.657Z,100.00
2023-04-21T21:12:45.221Z,100.00
2023-04-21T21:15:11.801Z,100.00
2023-04-21T21:17:38.319Z,100.00
2023-04-21T21:20:05.847Z,100.00
2023-04-21T21:22:32.316Z,100.00
2023-04-21T21:24:58.837Z,100.00
2023-04-21T21:27:25.306Z,100.00
2023-04-21T21:29:51.851Z,100.00
2023-04-21T21:32:18.520Z,100.00
2023-04-21T21:34:45.616Z,100.00
2023-04-21T21:37:12.049Z,100.00
2023-04-21T21:39:38.696Z,100.00
2023-04-21T21:42:05.439Z,100.00
2023-04-21T21:44:32.071Z,100.00
2023-04-21T21:46:58.619Z,100.00
2023-04-21T21:49:25.127Z,100.00
2023-04-21T21:51:52.922Z,100.00
2023-04-21T21:54:19.367Z,100.00
2023-04-21T21:56:45.859Z,100.00
2023-04-21T21:59:12.588Z,100.00
2023-04-21T22:01:39.318Z,100.00
2023-04-21T22:04:06.311Z,100.00
2023-04-21T22:06:34.751Z,100.00
2023-04-21T22:09:01.295Z,100.00
2023-04-21T22:11:27.824Z,100.00
2023-04-21T22:13:54.370Z,100.00
2023-04-21T22:16:20.845Z,100.00
2023-04-21T22:18:48.262Z,100.00
2023-04-21T22:21:15.104Z,100.00
2023-04-21T22:23:41.617Z,100.00
2023-04-21T22:26:09.247Z,100.00
2023-04-21T22:28:35.734Z,100.00
2023-04-21T22:31:02.212Z,100.00
2023-04-21T22:33:29.040Z,100.00
2023-04-21T22:35:55.799Z,100.00
2023-04-21T22:38:22.273Z,100.00
2023-04-21T22:40:48.774Z,100.00
2023-04-21T22:43:15.482Z,100.00
2023-04-21T22:45:42.855Z,100.00
2023-04-21T22:48:09.422Z,100.00
2023-04-21T22:50:35.860Z,100.00
2023-04-21T22:53:02.326Z,100.00
2023-04-21T22:55:29.057Z,100.00
2023-04-21T22:57:55.575Z,100.00
2023-04-21T23:00:22.064Z,100.00
2023-04-21T23:02:48.732Z,100.00
2023-04-21T23:05:15.782Z,100.00
2023-04-21T23:07:42.288Z,100.00
2023-04-21T23:10:09.104Z,100.00
2023-04-21T23:12:35.628Z,100.00
2023-04-21T23:15:02.086Z,100.00
2023-04-21T23:17:28.569Z,100.00
2023-04-21T23:19:55.307Z,100.00
2023-04-21T23:22:25.431Z,100.00
2023-04-21T23:24:52.641Z,100.00
2023-04-21T23:27:19.154Z,100.00
2023-04-21T23:29:45.629Z,100.00
2023-04-21T23:32:12.339Z,100.00
2023-04-21T23:34:39.575Z,100.00
2023-04-21T23:37:06.023Z,100.00
2023-04-21T23:39:32.585Z,100.00
2023-04-21T23:41:59.088Z,100.00
2023-04-21T23:44:25.630Z,100.00
2023-04-21T23:46:52.109Z,100.00
2023-04-21T23:49:18.601Z,100.00
2023-04-21T23:51:45.237Z,100.00
2023-04-21T23:54:11.702Z,100.00
2023-04-21T23:56:38.116Z,100.00
2023-04-21T23:59:04.635Z,100.00
